Aérodrome :
LOGIN :

S'inscrire | Disclaimer

   EN    FR    IT 

 










Légende :    VFR   VFR Marginal   IFR   IFR Intensif   IFR Très Intensif
Visi : 
Plafond : 
>= 8 km
>= 3000ft
5 à 8 km
1000 à 3000 ft
1500m à 5 km
500 à 1000 ft
800 à 1500m
200 à 500 ft
< 800m
< 200 ft
Symboles :   Orages  Brouillard  Fortes neiges  Fortes précipitations  Vent > 20 kt
SIGMETs :   Divers  Orages  Givrage  Turbulence  Onde Orograph.  Cendres Volcan.






- Altitude de l'aérodrome : 295 ft
- Code IATA : BWE


EDVE - Braunschweig

DERNIER METAR :
  • 271120Z 22009KT 190V260 9999 SCT024 BKN042 05/M01 Q1001

METARs EXPIRÉS :
  • 271050Z 24009KT 9999 FEW022 SCT029 BKN035 05/M01 Q1001
  • 271020Z 23008KT 210V270 9999 BKN023 04/M01 Q1001
  • 270950Z 26009KT 9999 BKN023 04/M01 Q1002
  • 270920Z 25010KT 9999 SCT019 04/M01 Q1002
  • 270850Z 24010KT 9999 FEW019 04/M00 Q1002

TAF TAF EDVE
Valide du 27 à 12h jusqu'au 27 à 21h UTC


271100Z 2712/2721 23010KT 9999 SCT025
BECMG 2714/2716 19004KT



MET'MAP, la Météo Aéronautique d'un coup d'oeil ! - Copyright ORBIFLY Décembre 2007 - Disclaimer

ORBIFLY MET'MAP TEAM :

Programmation & Développement : Alexandra Zaïnal
Sur une idée originale de : Baudouin d'Aumeries
Assistance à la programmation : Marc-Olivier Méhu
Soutien technique & logistique : Manuel Goepfert

Contact : metmap@orbifly.com




SOURCES & CREDITS :

   NOAA